Time;durP1;ratioP1;P1;durP2;ratioP2;P2;SDS_P1;SDS_P2;PMS_P1;PMS_P2;Temp;Humidity;BMP_temperature;BMP_pressure;BME280_temperature;BME280_humidity;BME280_pressure;Samples;Min_cycle;Max_cycle;Signal;HPM_P1;HPM_P2
2022/05/04 00:01:37;;;;;;;8.00;7.15;;;;;;;;;;5037943;28;20276;-77
2022/05/04 00:04:02;;;;;;;9.85;7.35;;;;;;;;;;5037881;28;20033;-77
2022/05/04 00:06:27;;;;;;;7.13;6.43;;;;;;;;;;5037792;28;20026;-76
2022/05/04 00:08:53;;;;;;;5.88;5.28;;;;;;;;;;5037852;28;20053;-77
2022/05/04 00:11:18;;;;;;;6.80;5.28;;;;;;;;;;5037259;28;20060;-77
2022/05/04 00:13:44;;;;;;;6.47;5.00;;;;;;;;;;5037497;28;20092;-77
2022/05/04 00:16:09;;;;;;;6.53;4.82;;;;;;;;;;5037648;28;20423;-77
2022/05/04 00:18:34;;;;;;;6.75;4.80;;;;;;;;;;5037637;28;20021;-76
2022/05/04 00:21:02;;;;;;;5.40;4.90;;;;;;;;;;5037438;28;20040;-78
2022/05/04 00:23:27;;;;;;;5.47;4.90;;;;;;;;;;5037412;28;20022;-77
2022/05/04 00:25:53;;;;;;;6.63;5.05;;;;;;;;;;5036199;28;20033;-77
2022/05/04 00:28:18;;;;;;;5.95;5.13;;;;;;;;;;5037138;28;20115;-77
2022/05/04 00:30:44;;;;;;;5.00;4.68;;;;;;;;;;5037291;28;20060;-78
2022/05/04 00:33:09;;;;;;;5.78;5.10;;;;;;;;;;5037225;28;20032;-77
2022/05/04 00:35:34;;;;;;;5.03;4.57;;;;;;;;;;5037130;28;20458;-78
2022/05/04 00:38:00;;;;;;;5.18;4.78;;;;;;;;;;5037076;28;20029;-78
2022/05/04 00:40:26;;;;;;;5.72;5.22;;;;;;;;;;5037405;28;20029;-78
2022/05/04 00:42:52;;;;;;;5.70;5.10;;;;;;;;;;5037092;28;20036;-78
2022/05/04 00:45:17;;;;;;;6.40;5.63;;;;;;;;;;5037024;28;20029;-78
2022/05/04 00:47:42;;;;;;;7.28;5.05;;;;;;;;;;5037337;28;20092;-77
2022/05/04 00:50:09;;;;;;;6.53;4.97;;;;;;;;;;5036924;28;20041;-78
2022/05/04 00:52:35;;;;;;;5.18;4.68;;;;;;;;;;5036571;28;20390;-77
2022/05/04 00:55:02;;;;;;;6.72;4.88;;;;;;;;;;5036840;28;20025;-78
2022/05/04 01:00:12;;;;;;;6.47;4.65;;;;;;;;;;5036263;28;20048;-77
2022/05/04 01:02:39;;;;;;;5.90;4.68;;;;;;;;;;5036567;28;20022;-77
2022/05/04 01:05:04;;;;;;;5.32;4.75;;;;;;;;;;5036761;28;20029;-78
2022/05/04 01:07:30;;;;;;;5.20;4.40;;;;;;;;;;5036562;28;20067;-78
2022/05/04 01:09:55;;;;;;;5.20;4.70;;;;;;;;;;5036582;28;20025;-76
2022/05/04 01:12:23;;;;;;;5.97;4.90;;;;;;;;;;5036039;28;20084;-76
2022/05/04 01:14:49;;;;;;;6.70;5.00;;;;;;;;;;5036593;28;20424;-77
2022/05/04 01:17:14;;;;;;;7.95;4.28;;;;;;;;;;5036530;28;20092;-76
2022/05/04 01:19:39;;;;;;;4.43;4.07;;;;;;;;;;5035998;28;20474;-76
2022/05/04 01:22:05;;;;;;;6.28;4.57;;;;;;;;;;5036575;28;20339;-75
2022/05/04 01:24:30;;;;;;;5.35;4.15;;;;;;;;;;5036168;28;20117;-75
2022/05/04 01:26:55;;;;;;;5.47;4.43;;;;;;;;;;5036579;28;20049;-75
2022/05/04 01:29:21;;;;;;;4.60;4.18;;;;;;;;;;5036223;28;20036;-75
2022/05/04 01:31:47;;;;;;;5.97;3.70;;;;;;;;;;5036214;28;20026;-75
2022/05/04 01:34:12;;;;;;;5.18;4.15;;;;;;;;;;5036207;28;20040;-75
2022/05/04 01:36:38;;;;;;;5.43;3.92;;;;;;;;;;5036464;28;20385;-76
2022/05/04 01:39:03;;;;;;;4.32;3.92;;;;;;;;;;5036033;28;20029;-76
2022/05/04 01:44:12;;;;;;;4.28;3.75;;;;;;;;;;5036260;28;20037;-77
2022/05/04 01:46:38;;;;;;;4.30;4.00;;;;;;;;;;5035867;28;20089;-77
2022/05/04 01:49:03;;;;;;;4.43;4.00;;;;;;;;;;5036039;28;20034;-77
2022/05/04 01:51:30;;;;;;;4.57;4.27;;;;;;;;;;5036036;28;20022;-76
2022/05/04 01:53:55;;;;;;;4.80;4.40;;;;;;;;;;5036019;28;20280;-76
2022/05/04 01:56:20;;;;;;;4.32;3.95;;;;;;;;;;5035658;28;20068;-76
2022/05/04 01:58:46;;;;;;;4.45;4.15;;;;;;;;;;5035618;28;20040;-75
2022/05/04 02:01:11;;;;;;;4.40;4.00;;;;;;;;;;5035690;28;20029;-75
2022/05/04 02:03:37;;;;;;;4.68;4.18;;;;;;;;;;5034445;28;20279;-75
2022/05/04 02:06:03;;;;;;;4.85;4.35;;;;;;;;;;5035503;28;20017;-75
2022/05/04 02:08:29;;;;;;;4.45;3.97;;;;;;;;;;5035646;28;20550;-77
2022/05/04 02:10:54;;;;;;;4.93;4.10;;;;;;;;;;5035239;28;20128;-76
2022/05/04 02:13:20;;;;;;;5.80;3.80;;;;;;;;;;5034651;28;20107;-77
2022/05/04 02:15:45;;;;;;;4.65;4.30;;;;;;;;;;5035463;28;20047;-76
2022/05/04 02:18:11;;;;;;;5.25;4.65;;;;;;;;;;5035355;28;20377;-76
2022/05/04 02:20:36;;;;;;;6.60;4.85;;;;;;;;;;5035474;28;20067;-77
2022/05/04 02:23:01;;;;;;;4.68;4.30;;;;;;;;;;5035311;28;20033;-77
2022/05/04 02:25:26;;;;;;;6.07;4.65;;;;;;;;;;5035052;28;20025;-77
2022/05/04 02:27:54;;;;;;;4.97;4.40;;;;;;;;;;5035012;28;20093;-76
2022/05/04 02:30:19;;;;;;;5.05;4.55;;;;;;;;;;5035311;28;20025;-75
2022/05/04 02:32:44;;;;;;;5.40;4.90;;;;;;;;;;5034846;28;20025;-75
2022/05/04 02:37:54;;;;;;;6.80;4.60;;;;;;;;;;5034645;28;20037;-75
2022/05/04 02:40:19;;;;;;;6.63;4.68;;;;;;;;;;5034563;28;20021;-75
2022/05/04 02:42:46;;;;;;;5.65;4.72;;;;;;;;;;5034946;28;20037;-75
2022/05/04 02:45:11;;;;;;;4.88;4.47;;;;;;;;;;5034724;28;20013;-75
2022/05/04 02:47:37;;;;;;;5.45;4.45;;;;;;;;;;5034888;28;20084;-76
2022/05/04 02:50:03;;;;;;;5.50;5.00;;;;;;;;;;5034864;28;20025;-76
2022/05/04 02:52:28;;;;;;;7.18;5.07;;;;;;;;;;5034566;28;20030;-76
2022/05/04 02:54:53;;;;;;;7.95;5.10;;;;;;;;;;5034460;28;20025;-77
2022/05/04 02:57:19;;;;;;;5.10;4.60;;;;;;;;;;5034548;28;20406;-77
2022/05/04 02:59:44;;;;;;;5.33;4.87;;;;;;;;;;5034814;28;20031;-77
2022/05/04 03:02:27;;;;;;;5.60;4.78;;;;;;;;;;5034784;28;20278;-77
2022/05/04 03:04:54;;;;;;;4.97;4.53;;;;;;;;;;5034277;28;20017;-77
2022/05/04 03:07:20;;;;;;;5.18;4.55;;;;;;;;;;5034641;28;20476;-77
2022/05/04 03:09:45;;;;;;;7.75;4.80;;;;;;;;;;5034393;28;20112;-77
2022/05/04 03:12:10;;;;;;;5.13;4.70;;;;;;;;;;5034267;28;20053;-77
2022/05/04 03:14:36;;;;;;;6.40;5.80;;;;;;;;;;5034448;28;20270;-77
2022/05/04 03:17:01;;;;;;;5.72;5.28;;;;;;;;;;5034450;28;20120;-77
2022/05/04 03:19:27;;;;;;;14.27;6.55;;;;;;;;;;5033906;28;20041;-76
2022/05/04 03:21:52;;;;;;;6.57;5.93;;;;;;;;;;5034404;28;20449;-77
2022/05/04 03:24:19;;;;;;;6.88;5.25;;;;;;;;;;5034184;28;20022;-77
2022/05/04 03:26:44;;;;;;;6.90;5.43;;;;;;;;;;5033467;28;20354;-77
2022/05/04 03:29:10;;;;;;;6.32;5.72;;;;;;;;;;5034136;28;20042;-76
2022/05/04 03:31:36;;;;;;;5.95;5.40;;;;;;;;;;5034081;28;20033;-77
2022/05/04 03:34:01;;;;;;;6.78;5.80;;;;;;;;;;5034065;28;20029;-76
2022/05/04 03:36:27;;;;;;;5.95;5.35;;;;;;;;;;5034059;28;20373;-76
2022/05/04 03:38:52;;;;;;;5.90;5.30;;;;;;;;;;5033455;28;20037;-76
2022/05/04 03:41:17;;;;;;;6.30;5.30;;;;;;;;;;5033987;28;20025;-76
2022/05/04 03:43:43;;;;;;;6.00;5.05;;;;;;;;;;5034063;28;20030;-75
2022/05/04 03:46:12;;;;;;;5.78;5.25;;;;;;;;;;5033764;28;20512;-76
2022/05/04 03:48:38;;;;;;;5.50;5.00;;;;;;;;;;5033766;28;20033;-74
2022/05/04 03:51:03;;;;;;;4.90;4.57;;;;;;;;;;5033977;28;20032;-76
2022/05/04 03:53:28;;;;;;;5.88;5.30;;;;;;;;;;5033857;28;20035;-75
2022/05/04 03:55:54;;;;;;;5.25;4.75;;;;;;;;;;5033790;28;20025;-76
2022/05/04 03:58:19;;;;;;;5.53;5.03;;;;;;;;;;5033777;28;20116;-75
2022/05/04 04:00:44;;;;;;;5.25;4.72;;;;;;;;;;5033697;28;20029;-75
2022/05/04 04:03:10;;;;;;;5.60;4.90;;;;;;;;;;5033739;28;20171;-76
2022/05/04 04:05:35;;;;;;;5.60;4.75;;;;;;;;;;5033952;28;20013;-76
2022/05/04 04:08:01;;;;;;;5.75;4.85;;;;;;;;;;5033784;28;20017;-77
2022/05/04 04:10:26;;;;;;;5.18;4.63;;;;;;;;;;5016095;28;20473;-77
2022/05/04 04:12:51;;;;;;;4.53;4.07;;;;;;;;;;5032918;28;20167;-77
2022/05/04 04:15:17;;;;;;;6.07;4.80;;;;;;;;;;5032981;28;20033;-77
2022/05/04 04:17:42;;;;;;;4.68;4.22;;;;;;;;;;5033191;28;20040;-77
2022/05/04 04:22:52;;;;;;;4.72;4.32;;;;;;;;;;5033515;28;20325;-76
2022/05/04 04:25:18;;;;;;;5.18;4.18;;;;;;;;;;5033022;28;20101;-76
2022/05/04 04:27:44;;;;;;;4.45;4.05;;;;;;;;;;5033618;28;20462;-76
2022/05/04 04:30:09;;;;;;;4.38;3.97;;;;;;;;;;5033470;28;20031;-76
2022/05/04 04:32:35;;;;;;;6.38;5.47;;;;;;;;;;5033442;28;20474;-76
2022/05/04 04:35:00;;;;;;;8.30;6.57;;;;;;;;;;5033417;28;20021;-76
2022/05/04 04:37:25;;;;;;;7.00;6.03;;;;;;;;;;5035492;28;20272;-76
2022/05/04 04:39:51;;;;;;;8.90;5.70;;;;;;;;;;5037194;28;20465;-76
2022/05/04 04:42:16;;;;;;;6.22;4.97;;;;;;;;;;5037448;28;20728;-76
2022/05/04 04:44:42;;;;;;;4.97;4.57;;;;;;;;;;5036887;28;20014;-76
2022/05/04 04:47:07;;;;;;;5.60;5.13;;;;;;;;;;5037364;28;20052;-76
2022/05/04 04:49:32;;;;;;;7.05;4.40;;;;;;;;;;5037218;28;20064;-76
2022/05/04 04:51:58;;;;;;;4.90;4.30;;;;;;;;;;5036853;28;20030;-76
2022/05/04 04:54:23;;;;;;;3.90;3.60;;;;;;;;;;5036799;28;20052;-76
2022/05/04 04:56:48;;;;;;;4.40;3.72;;;;;;;;;;5036910;28;20029;-76
2022/05/04 04:59:14;;;;;;;3.70;3.40;;;;;;;;;;5036503;28;20093;-76
2022/05/04 05:01:39;;;;;;;5.05;3.97;;;;;;;;;;5036696;28;20599;-77
2022/05/04 05:04:04;;;;;;;4.67;3.40;;;;;;;;;;5036502;28;20028;-77
2022/05/04 05:06:30;;;;;;;7.80;3.72;;;;;;;;;;5036645;28;20358;-77
2022/05/04 05:08:56;;;;;;;4.07;3.67;;;;;;;;;;5036400;28;20064;-78
2022/05/04 05:11:21;;;;;;;5.45;3.70;;;;;;;;;;5036159;28;20087;-78
2022/05/04 05:16:32;;;;;;;4.85;3.70;;;;;;;;;;5036623;28;20034;-77
2022/05/04 05:18:57;;;;;;;4.15;3.85;;;;;;;;;;5035623;28;20033;-76
2022/05/04 05:21:22;;;;;;;5.82;3.85;;;;;;;;;;5035945;28;20121;-76
2022/05/04 05:23:47;;;;;;;3.58;3.38;;;;;;;;;;5035986;28;20100;-76
2022/05/04 05:26:13;;;;;;;3.60;3.30;;;;;;;;;;5036145;28;20026;-76
2022/05/04 05:28:38;;;;;;;4.35;3.60;;;;;;;;;;5035455;28;20034;-76
2022/05/04 05:31:04;;;;;;;4.63;3.85;;;;;;;;;;5035702;28;20528;-76
2022/05/04 05:33:29;;;;;;;3.80;3.50;;;;;;;;;;5035558;28;20056;-76
2022/05/04 05:35:54;;;;;;;3.50;3.30;;;;;;;;;;5035951;28;20280;-76
2022/05/04 05:38:21;;;;;;;4.20;3.88;;;;;;;;;;5035933;28;20049;-76
2022/05/04 05:40:47;;;;;;;3.20;3.00;;;;;;;;;;5035373;28;20390;-76
2022/05/04 05:43:12;;;;;;;3.67;3.25;;;;;;;;;;5018105;28;20018;-77
2022/05/04 05:45:37;;;;;;;3.75;3.45;;;;;;;;;;5035534;28;20462;-76
2022/05/04 05:48:03;;;;;;;3.53;3.22;;;;;;;;;;5034850;28;20147;-76
2022/05/04 05:50:28;;;;;;;3.53;3.22;;;;;;;;;;5035745;28;20033;-76
2022/05/04 05:52:54;;;;;;;3.65;3.35;;;;;;;;;;5034628;28;20112;-76
2022/05/04 05:55:20;;;;;;;3.83;3.53;;;;;;;;;;5035955;28;20036;-76
2022/05/04 05:57:45;;;;;;;3.50;3.17;;;;;;;;;;5036044;28;20090;-76
2022/05/04 06:00:12;;;;;;;4.05;3.60;;;;;;;;;;5017995;28;20045;-75
2022/05/04 06:02:40;;;;;;;6.75;3.85;;;;;;;;;;5017405;28;20391;-76
2022/05/04 06:05:05;;;;;;;3.47;3.20;;;;;;;;;;5035716;28;20033;-75
2022/05/04 06:07:33;;;;;;;4.03;3.28;;;;;;;;;;5035575;28;20026;-75
2022/05/04 06:09:58;;;;;;;3.63;3.30;;;;;;;;;;5035591;28;20038;-75
2022/05/04 06:12:23;;;;;;;4.43;3.65;;;;;;;;;;5035531;28;20061;-76
2022/05/04 06:14:49;;;;;;;4.47;3.13;;;;;;;;;;5035299;28;20470;-76
2022/05/04 06:17:14;;;;;;;3.70;3.40;;;;;;;;;;5035627;28;20100;-76
2022/05/04 06:19:39;;;;;;;3.55;3.28;;;;;;;;;;5035266;28;20032;-76
2022/05/04 06:22:05;;;;;;;3.67;3.40;;;;;;;;;;5035380;28;20507;-77
2022/05/04 06:24:30;;;;;;;3.78;3.47;;;;;;;;;;5035104;28;20112;-76
2022/05/04 06:26:55;;;;;;;4.07;3.63;;;;;;;;;;5035219;28;20049;-76
2022/05/04 06:29:21;;;;;;;3.78;3.47;;;;;;;;;;5034647;28;20037;-76
2022/05/04 06:34:30;;;;;;;3.90;3.60;;;;;;;;;;5034854;28;20038;-76
2022/05/04 06:36:56;;;;;;;3.88;3.55;;;;;;;;;;5034670;28;20104;-75
2022/05/04 06:39:21;;;;;;;6.13;3.83;;;;;;;;;;5033984;28;20544;-76
2022/05/04 06:41:47;;;;;;;5.37;3.97;;;;;;;;;;5034429;28;20028;-76
2022/05/04 06:44:12;;;;;;;5.63;4.00;;;;;;;;;;5034478;28;20272;-76
2022/05/04 06:46:41;;;;;;;4.80;4.10;;;;;;;;;;5034326;28;20028;-75
2022/05/04 06:49:08;;;;;;;3.80;3.60;;;;;;;;;;5034233;28;20383;-76
2022/05/04 06:51:33;;;;;;;4.05;3.85;;;;;;;;;;5034218;28;20079;-76
2022/05/04 06:53:59;;;;;;;10.23;4.50;;;;;;;;;;5032990;28;20488;-76
2022/05/04 06:56:24;;;;;;;7.28;6.03;;;;;;;;;;5034149;28;20022;-76
2022/05/04 06:58:49;;;;;;;5.25;4.85;;;;;;;;;;5033997;28;20084;-75
2022/05/04 07:01:15;;;;;;;6.07;5.57;;;;;;;;;;5034076;28;20025;-75
2022/05/04 07:03:40;;;;;;;6.18;5.68;;;;;;;;;;5033567;28;20268;-76
2022/05/04 07:06:06;;;;;;;6.72;4.70;;;;;;;;;;5032886;28;20024;-76
2022/05/04 07:08:32;;;;;;;5.50;5.00;;;;;;;;;;5032871;28;20026;-75
2022/05/04 07:10:57;;;;;;;5.15;4.75;;;;;;;;;;5032597;28;20060;-75
2022/05/04 07:13:23;;;;;;;6.13;4.82;;;;;;;;;;5032830;28;20030;-75
2022/05/04 07:15:49;;;;;;;4.68;4.38;;;;;;;;;;5032722;28;20022;-75
2022/05/04 07:18:14;;;;;;;5.38;3.97;;;;;;;;;;5032923;28;20037;-75
2022/05/04 07:20:39;;;;;;;13.25;11.93;;;;;;;;;;5015591;28;20022;-75
2022/05/04 07:23:05;;;;;;;5.47;5.03;;;;;;;;;;5032636;28;20034;-76
2022/05/04 07:25:30;;;;;;;4.28;3.97;;;;;;;;;;5032605;28;20017;-75
2022/05/04 07:27:55;;;;;;;4.97;4.47;;;;;;;;;;5032630;28;20052;-76
2022/05/04 07:30:21;;;;;;;6.68;4.95;;;;;;;;;;5032540;28;20044;-76
2022/05/04 07:32:46;;;;;;;5.00;4.60;;;;;;;;;;5032531;28;20037;-75
2022/05/04 07:35:12;;;;;;;4.50;4.10;;;;;;;;;;5032584;28;20095;-76
2022/05/04 07:37:37;;;;;;;5.82;4.32;;;;;;;;;;5032434;28;20069;-74
2022/05/04 07:42:47;;;;;;;6.05;4.18;;;;;;;;;;5032462;28;20025;-76
2022/05/04 07:45:13;;;;;;;4.03;3.47;;;;;;;;;;5032483;28;20563;-76
2022/05/04 07:47:39;;;;;;;4.70;4.30;;;;;;;;;;5031206;28;20307;-76
2022/05/04 07:50:05;;;;;;;4.72;4.25;;;;;;;;;;5032320;28;20033;-76
2022/05/04 07:52:31;;;;;;;4.68;4.28;;;;;;;;;;5032377;28;20033;-76
2022/05/04 07:54:56;;;;;;;6.30;4.82;;;;;;;;;;5032280;28;20044;-76
2022/05/04 07:57:21;;;;;;;5.15;4.70;;;;;;;;;;5032247;28;20037;-76
2022/05/04 08:04:16;;;;;;;7.13;4.53;;;;;;;;;;5032240;28;20108;-76
2022/05/04 08:05:17;;;;;;;5.13;4.57;;;;;;;;;;5032224;28;20026;-76
2022/05/04 08:07:42;;;;;;;5.13;4.63;;;;;;;;;;5032131;28;20017;-76
2022/05/04 08:10:08;;;;;;;4.28;3.97;;;;;;;;;;5032180;28;20041;-75
2022/05/04 08:12:33;;;;;;;4.70;4.30;;;;;;;;;;5034928;28;20041;-75
2022/05/04 08:14:59;;;;;;;5.70;4.50;;;;;;;;;;5036060;28;20064;-75
2022/05/04 08:17:24;;;;;;;2.95;2.75;;;;;;;;;;5036065;28;20029;-76
2022/05/04 08:19:50;;;;;;;5.25;3.90;;;;;;;;;;5036417;28;20032;-76
2022/05/04 08:22:15;;;;;;;5.93;3.97;;;;;;;;;;5037324;28;20092;-74
2022/05/04 08:24:40;;;;;;;4.50;4.10;;;;;;;;;;5037028;28;20378;-77
2022/05/04 08:27:06;;;;;;;5.10;3.65;;;;;;;;;;5037081;28;20022;-75
2022/05/04 08:29:31;;;;;;;4.18;3.80;;;;;;;;;;5037003;28;20580;-75
2022/05/04 08:31:58;;;;;;;4.72;3.80;;;;;;;;;;5036851;28;20033;-75
2022/05/04 08:34:24;;;;;;;4.63;4.20;;;;;;;;;;5036795;28;20033;-75
2022/05/04 08:36:49;;;;;;;4.55;3.17;;;;;;;;;;5037096;28;20013;-75
2022/05/04 08:39:14;;;;;;;4.47;4.18;;;;;;;;;;5036636;28;20030;-75
2022/05/04 08:41:41;;;;;;;4.85;4.25;;;;;;;;;;5036656;28;20044;-75
2022/05/04 08:44:08;;;;;;;7.35;4.47;;;;;;;;;;5035436;28;20037;-75
2022/05/04 08:46:35;;;;;;;4.82;4.43;;;;;;;;;;5016804;28;20018;-75
2022/05/04 08:49:02;;;;;;;3.80;3.55;;;;;;;;;;5035032;28;20521;-75
2022/05/04 08:51:28;;;;;;;4.50;4.10;;;;;;;;;;5035097;28;20033;-75
2022/05/04 08:53:53;;;;;;;4.47;4.07;;;;;;;;;;5035104;28;20029;-75
2022/05/04 08:56:18;;;;;;;3.10;2.90;;;;;;;;;;5035040;28;20025;-75
2022/05/04 08:58:44;;;;;;;4.13;3.50;;;;;;;;;;5035715;28;20546;-75
2022/05/04 09:01:09;;;;;;;4.90;4.50;;;;;;;;;;5036300;28;20053;-75
2022/05/04 09:03:35;;;;;;;4.93;4.50;;;;;;;;;;5036274;28;20033;-75
2022/05/04 09:06:00;;;;;;;4.88;4.40;;;;;;;;;;5036268;28;20067;-75
2022/05/04 09:08:25;;;;;;;4.57;4.28;;;;;;;;;;5036291;28;20040;-75
2022/05/04 09:10:51;;;;;;;3.90;3.30;;;;;;;;;;5041364;28;20045;-75
2022/05/04 09:13:19;;;;;;;5.05;3.53;;;;;;;;;;5056154;28;20117;-75
2022/05/04 09:15:45;;;;;;;3.92;3.63;;;;;;;;;;5055915;28;20033;-75
2022/05/04 09:18:16;;;;;;;5.97;4.68;;;;;;;;;;5055991;28;20036;-75
2022/05/04 09:20:47;;;;;;;4.80;4.20;;;;;;;;;;5056063;28;20043;-75
2022/05/04 09:23:13;;;;;;;5.78;3.90;;;;;;;;;;5054723;28;20029;-75
2022/05/04 09:25:39;;;;;;;3.78;3.47;;;;;;;;;;5055886;28;20104;-75
2022/05/04 09:28:10;;;;;;;4.40;4.10;;;;;;;;;;5055873;28;20481;-76
2022/05/04 09:30:35;;;;;;;5.28;3.97;;;;;;;;;;5055725;28;20040;-75
2022/05/04 09:33:01;;;;;;;4.82;4.32;;;;;;;;;;5055662;28;20024;-75
2022/05/04 09:35:26;;;;;;;4.65;4.22;;;;;;;;;;5055631;28;20037;-75
2022/05/04 09:46:32;;;;;;;5.50;3.90;;;;;;;;;;4974674;28;20123;-75
2022/05/04 09:48:58;;;;;;;4.40;3.80;;;;;;;;;;5025072;28;20080;-75
2022/05/04 09:51:27;;;;;;;5.82;4.70;;;;;;;;;;5055314;28;20485;-74
2022/05/04 09:53:52;;;;;;;6.55;4.30;;;;;;;;;;5055298;28;20440;-75
2022/05/04 09:56:17;;;;;;;5.60;3.63;;;;;;;;;;5055177;28;20060;-74
2022/05/04 09:58:43;;;;;;;4.28;3.95;;;;;;;;;;5054626;28;20024;-75
2022/05/04 10:01:08;;;;;;;3.80;3.50;;;;;;;;;;5054060;28;20040;-75
2022/05/04 10:03:34;;;;;;;5.38;3.50;;;;;;;;;;5054000;28;20104;-75
2022/05/04 10:06:00;;;;;;;4.95;4.13;;;;;;;;;;5053892;28;20037;-75
2022/05/04 10:08:27;;;;;;;4.90;3.85;;;;;;;;;;5054767;28;20077;-74
2022/05/04 10:10:54;;;;;;;3.70;3.38;;;;;;;;;;5054385;28;20508;-74
2022/05/04 10:13:20;;;;;;;4.07;3.55;;;;;;;;;;5053613;28;20431;-75
2022/05/04 10:15:47;;;;;;;6.72;3.97;;;;;;;;;;5053694;28;20033;-75
2022/05/04 10:18:14;;;;;;;3.85;3.53;;;;;;;;;;5052989;28;20029;-75
2022/05/04 10:20:42;;;;;;;4.00;3.05;;;;;;;;;;5053605;28;20033;-75
2022/05/04 10:23:07;;;;;;;4.32;3.53;;;;;;;;;;5053233;28;20029;-76
2022/05/04 10:25:34;;;;;;;4.03;3.72;;;;;;;;;;5053331;28;20033;-76
2022/05/04 10:28:06;;;;;;;4.10;3.80;;;;;;;;;;5053309;28;20028;-75
2022/05/04 10:30:31;;;;;;;5.45;4.45;;;;;;;;;;5052765;28;20047;-76
2022/05/04 10:33:08;;;;;;;4.65;4.18;;;;;;;;;;5052472;28;20029;-75
2022/05/04 10:35:35;;;;;;;5.70;4.45;;;;;;;;;;5052749;28;20037;-76
2022/05/04 10:38:00;;;;;;;3.50;2.75;;;;;;;;;;5053281;28;20457;-75
2022/05/04 10:40:27;;;;;;;5.03;4.50;;;;;;;;;;5052515;28;20048;-76
2022/05/04 10:42:59;;;;;;;4.38;4.07;;;;;;;;;;5053137;28;20028;-76
2022/05/04 10:45:29;;;;;;;5.30;4.80;;;;;;;;;;5052978;28;20242;-76
2022/05/04 10:48:01;;;;;;;4.60;4.17;;;;;;;;;;5035128;28;20107;-75
2022/05/04 10:50:26;;;;;;;4.25;3.95;;;;;;;;;;5034815;28;20064;-75
2022/05/04 10:52:52;;;;;;;4.60;4.30;;;;;;;;;;5052795;28;20103;-76
2022/05/04 10:55:18;;;;;;;5.50;3.67;;;;;;;;;;5052572;28;20032;-76
2022/05/04 10:57:43;;;;;;;3.47;3.17;;;;;;;;;;5052993;28;20461;-76
2022/05/04 11:00:10;;;;;;;5.18;3.40;;;;;;;;;;5052847;28;20040;-75
2022/05/04 11:02:41;;;;;;;4.25;3.85;;;;;;;;;;5052752;28;20017;-75
2022/05/04 11:05:13;;;;;;;3.42;3.13;;;;;;;;;;5052478;28;20075;-73
2022/05/04 11:07:38;;;;;;;4.25;3.85;;;;;;;;;;5052833;28;20064;-75
2022/05/04 11:10:04;;;;;;;3.60;2.67;;;;;;;;;;5034489;28;20109;-73
2022/05/04 11:12:29;;;;;;;2.88;2.67;;;;;;;;;;5052468;28;20049;-73
2022/05/04 11:14:54;;;;;;;3.13;2.85;;;;;;;;;;5052812;28;20495;-73
2022/05/04 11:17:20;;;;;;;2.80;2.60;;;;;;;;;;5034266;28;20033;-73
2022/05/04 11:19:46;;;;;;;3.83;2.70;;;;;;;;;;5052574;28;20070;-73
2022/05/04 11:22:13;;;;;;;2.72;2.50;;;;;;;;;;5034681;28;20274;-73
2022/05/04 11:24:38;;;;;;;4.55;4.18;;;;;;;;;;5052409;28;20108;-73
2022/05/04 11:27:04;;;;;;;4.75;4.35;;;;;;;;;;5052193;28;20056;-74
2022/05/04 11:29:29;;;;;;;4.47;4.13;;;;;;;;;;5052583;28;20025;-74
2022/05/04 11:31:56;;;;;;;4.65;4.30;;;;;;;;;;5052187;28;20049;-74
2022/05/04 11:34:22;;;;;;;6.28;4.10;;;;;;;;;;5052147;28;20029;-73
2022/05/04 11:36:48;;;;;;;7.35;4.10;;;;;;;;;;5052645;28;20128;-73
2022/05/04 11:39:18;;;;;;;5.65;4.25;;;;;;;;;;5052184;28;20020;-73
2022/05/04 11:41:44;;;;;;;5.13;4.10;;;;;;;;;;5034114;28;20044;-73
2022/05/04 11:44:09;;;;;;;4.57;4.18;;;;;;;;;;5052262;28;20465;-73
2022/05/04 11:46:34;;;;;;;4.68;4.13;;;;;;;;;;5051480;28;20056;-73
2022/05/04 11:49:00;;;;;;;4.78;4.40;;;;;;;;;;5051815;28;20021;-73
2022/05/04 11:51:25;;;;;;;9.65;4.30;;;;;;;;;;5051945;28;20033;-75
2022/05/04 11:53:50;;;;;;;6.05;4.82;;;;;;;;;;5052157;28;20151;-73
2022/05/04 11:56:16;;;;;;;6.32;4.35;;;;;;;;;;5051900;28;20025;-73
2022/05/04 11:58:42;;;;;;;5.90;4.55;;;;;;;;;;5051938;28;20459;-73
2022/05/04 12:01:08;;;;;;;4.43;4.13;;;;;;;;;;5051828;28;20039;-73
2022/05/04 12:03:38;;;;;;;4.57;4.18;;;;;;;;;;5051725;28;20445;-73
2022/05/04 12:06:04;;;;;;;4.78;4.28;;;;;;;;;;5052097;28;20028;-73
2022/05/04 12:08:31;;;;;;;4.88;4.13;;;;;;;;;;5052043;28;20102;-73
2022/05/04 12:10:58;;;;;;;6.53;4.43;;;;;;;;;;5051618;28;20055;-73
2022/05/04 12:13:24;;;;;;;6.80;4.28;;;;;;;;;;5051784;28;20022;-73
2022/05/04 12:15:51;;;;;;;6.05;4.65;;;;;;;;;;5052017;28;20366;-73
2022/05/04 12:18:16;;;;;;;4.65;4.25;;;;;;;;;;5051820;28;20017;-73
2022/05/04 12:20:46;;;;;;;5.22;4.45;;;;;;;;;;5051690;28;20127;-73
2022/05/04 12:23:12;;;;;;;5.57;3.50;;;;;;;;;;5033881;28;20370;-72
2022/05/04 12:25:38;;;;;;;4.30;3.90;;;;;;;;;;5051420;28;20031;-73
2022/05/04 12:28:03;;;;;;;4.50;4.10;;;;;;;;;;5051818;28;20447;-73
2022/05/04 12:33:13;;;;;;;4.20;3.90;;;;;;;;;;5051847;28;20029;-73
2022/05/04 12:35:45;;;;;;;4.80;3.92;;;;;;;;;;5051445;28;20023;-73
2022/05/04 12:38:13;;;;;;;4.57;4.18;;;;;;;;;;5051780;28;20079;-73
2022/05/04 12:40:38;;;;;;;4.05;3.75;;;;;;;;;;5051538;28;20049;-73
2022/05/04 12:43:04;;;;;;;4.63;4.32;;;;;;;;;;5051558;28;20492;-73
2022/05/04 12:45:30;;;;;;;4.40;4.10;;;;;;;;;;5034127;28;20013;-73
2022/05/04 12:47:56;;;;;;;4.63;4.22;;;;;;;;;;5052343;28;20029;-73
2022/05/04 12:50:23;;;;;;;4.22;3.90;;;;;;;;;;5052253;28;20021;-73
2022/05/04 12:52:49;;;;;;;5.53;4.28;;;;;;;;;;5052629;28;20488;-73
2022/05/04 12:55:14;;;;;;;3.75;3.28;;;;;;;;;;5052743;28;20029;-73
2022/05/04 12:57:40;;;;;;;4.10;3.80;;;;;;;;;;5053604;28;20041;-73
2022/05/04 13:00:05;;;;;;;4.83;3.90;;;;;;;;;;5038432;28;20041;-73
2022/05/04 13:02:30;;;;;;;3.80;3.50;;;;;;;;;;5056328;28;20274;-73
2022/05/04 13:04:56;;;;;;;4.33;3.90;;;;;;;;;;5056280;28;20028;-73
2022/05/04 13:07:21;;;;;;;4.50;3.40;;;;;;;;;;5056155;28;20636;-73
2022/05/04 13:09:46;;;;;;;6.72;4.07;;;;;;;;;;5056141;28;20112;-73
2022/05/04 13:12:13;;;;;;;5.03;3.95;;;;;;;;;;5038732;28;20037;-73
2022/05/04 13:14:38;;;;;;;4.07;3.63;;;;;;;;;;5056607;28;20036;-73
2022/05/04 13:17:04;;;;;;;6.50;3.97;;;;;;;;;;5056570;28;20050;-73
2022/05/04 13:19:31;;;;;;;4.55;3.72;;;;;;;;;;5056271;28;20028;-73
2022/05/04 13:21:56;;;;;;;5.15;3.80;;;;;;;;;;5056678;28;20445;-73
2022/05/04 13:24:21;;;;;;;4.90;3.92;;;;;;;;;;5055977;28;20017;-73
2022/05/04 13:26:47;;;;;;;4.28;3.92;;;;;;;;;;5038114;28;20461;-73
2022/05/04 13:29:12;;;;;;;4.35;3.83;;;;;;;;;;5055769;28;20051;-73
2022/05/04 13:31:39;;;;;;;3.88;3.55;;;;;;;;;;5055813;28;20031;-73
2022/05/04 13:34:04;;;;;;;4.28;3.92;;;;;;;;;;5055584;28;20029;-73
2022/05/04 13:36:29;;;;;;;5.80;3.45;;;;;;;;;;5037746;28;20098;-73
2022/05/04 13:38:55;;;;;;;4.10;3.70;;;;;;;;;;5055846;28;20025;-73
2022/05/04 13:41:20;;;;;;;5.35;3.40;;;;;;;;;;5055576;28;20333;-73
2022/05/04 13:43:46;;;;;;;3.55;3.25;;;;;;;;;;5037782;28;20510;-73
2022/05/04 13:46:11;;;;;;;3.83;3.53;;;;;;;;;;5055444;28;20108;-73
2022/05/04 13:48:37;;;;;;;3.85;3.55;;;;;;;;;;5055492;28;20033;-73
2022/05/04 13:53:47;;;;;;;4.57;4.18;;;;;;;;;;5055331;28;20032;-73
2022/05/04 13:56:12;;;;;;;3.58;3.28;;;;;;;;;;5055319;28;20428;-73
2022/05/04 13:58:38;;;;;;;4.00;3.70;;;;;;;;;;5055336;28;20059;-73
2022/05/04 14:01:03;;;;;;;4.15;3.80;;;;;;;;;;5055303;28;20071;-73
2022/05/04 14:03:28;;;;;;;4.82;3.70;;;;;;;;;;5055268;28;20128;-73
2022/05/04 14:05:54;;;;;;;4.53;3.83;;;;;;;;;;5055233;28;20044;-73
2022/05/04 14:08:19;;;;;;;4.28;3.63;;;;;;;;;;5055004;28;20537;-73
2022/05/04 14:10:46;;;;;;;3.53;3.22;;;;;;;;;;5053997;28;20040;-73
2022/05/04 14:13:13;;;;;;;4.07;3.22;;;;;;;;;;5054929;28;20064;-73
2022/05/04 14:15:38;;;;;;;3.42;3.10;;;;;;;;;;5054955;28;20496;-73
2022/05/04 14:18:05;;;;;;;4.20;3.20;;;;;;;;;;5054856;28;20043;-73
2022/05/04 14:20:31;;;;;;;5.13;4.28;;;;;;;;;;5054768;28;20024;-73
2022/05/04 14:22:56;;;;;;;3.33;3.05;;;;;;;;;;5054758;28;20040;-73
2022/05/04 14:25:21;;;;;;;3.95;3.60;;;;;;;;;;5054865;28;20017;-73
2022/05/04 14:27:47;;;;;;;3.95;3.65;;;;;;;;;;5054644;28;20053;-73
2022/05/04 14:30:12;;;;;;;3.25;3.03;;;;;;;;;;5054874;28;20017;-73
2022/05/04 14:32:39;;;;;;;4.88;3.17;;;;;;;;;;5054576;28;20064;-73
2022/05/04 14:35:04;;;;;;;3.22;3.00;;;;;;;;;;5054777;28;20071;-73
2022/05/04 14:37:30;;;;;;;3.50;3.30;;;;;;;;;;5054622;28;20067;-73
2022/05/04 14:39:56;;;;;;;3.55;3.28;;;;;;;;;;5054547;28;20078;-73
2022/05/04 14:42:21;;;;;;;3.70;3.22;;;;;;;;;;5054394;28;20029;-73
2022/05/04 14:44:46;;;;;;;3.93;3.33;;;;;;;;;;5054426;28;20032;-73
2022/05/04 14:47:12;;;;;;;6.05;5.55;;;;;;;;;;5054238;28;20332;-73
2022/05/04 14:49:37;;;;;;;3.38;3.17;;;;;;;;;;5054342;28;20025;-73
2022/05/04 14:52:03;;;;;;;4.10;3.80;;;;;;;;;;5054210;28;20037;-73
2022/05/04 14:54:28;;;;;;;4.40;4.10;;;;;;;;;;5054267;28;20017;-73
2022/05/04 14:56:54;;;;;;;6.60;6.05;;;;;;;;;;5054377;28;20108;-73
2022/05/04 14:59:19;;;;;;;43.05;5.88;;;;;;;;;;5054181;28;20439;-73
2022/05/04 15:01:45;;;;;;;5.10;4.70;;;;;;;;;;5054076;28;20028;-73
2022/05/04 15:06:54;;;;;;;5.20;4.88;;;;;;;;;;5054063;28;20074;-73
2022/05/04 15:09:19;;;;;;;8.50;5.88;;;;;;;;;;5036304;28;20021;-73
2022/05/04 15:11:46;;;;;;;4.30;4.07;;;;;;;;;;5053767;28;20125;-73
2022/05/04 15:14:11;;;;;;;4.68;4.28;;;;;;;;;;5053814;28;20029;-73